Time;durP1;ratioP1;P1;durP2;ratioP2;P2;SDS_P1;SDS_P2;PMS_P1;PMS_P2;Temp;Humidity;BMP_temperature;BMP_pressure;BME280_temperature;BME280_humidity;BME280_pressure;Samples;Min_cycle;Max_cycle;Signal;HPM_P1;HPM_P2
2023/11/06 00:00:28;;;;;;;2.65;1.40;;;23.20;59.60;;;;;;10390206;28;20249;-45
2023/11/06 00:05:31;;;;;;;3.45;1.30;;;23.20;59.60;;;;;;10403516;28;20284;-45
2023/11/06 00:10:36;;;;;;;2.72;1.23;;;23.30;59.70;;;;;;10399177;28;20197;-43
2023/11/06 00:15:40;;;;;;;2.50;1.50;;;23.20;59.60;;;;;;10400051;28;20248;-45
2023/11/06 00:20:44;;;;;;;2.30;1.23;;;23.20;59.60;;;;;;10400971;28;20251;-43
2023/11/06 00:25:49;;;;;;;1.65;1.20;;;23.20;59.60;;;;;;10400684;28;20255;-47
2023/11/06 00:30:52;;;;;;;2.08;1.40;;;23.20;59.60;;;;;;10399060;28;20572;-44
2023/11/06 00:35:56;;;;;;;1.85;1.00;;;23.20;59.60;;;;;;10389594;28;20270;-45
2023/11/06 00:41:01;;;;;;;2.17;1.23;;;23.20;59.60;;;;;;10400490;28;20283;-46
2023/11/06 00:46:05;;;;;;;1.45;1.05;;;23.20;59.60;;;;;;10400598;28;20220;-43
2023/11/06 00:51:08;;;;;;;2.20;1.30;;;23.20;59.60;;;;;;10402375;28;20228;-44
2023/11/06 00:56:13;;;;;;;2.05;1.02;;;23.20;59.60;;;;;;10398950;28;20220;-45
2023/11/06 01:01:20;;;;;;;3.45;1.20;;;23.20;59.60;;;;;;10401038;28;20248;-45
2023/11/06 01:06:24;;;;;;;1.67;1.20;;;23.20;59.60;;;;;;10397127;28;20302;-45
2023/11/06 01:11:29;;;;;;;1.77;1.13;;;23.20;59.60;;;;;;10391530;28;20672;-49
2023/11/06 01:16:33;;;;;;;2.78;0.90;;;23.20;59.60;;;;;;10404169;28;20273;-47
2023/11/06 01:21:37;;;;;;;2.15;1.50;;;23.20;59.60;;;;;;10397643;28;20255;-45
2023/11/06 01:26:42;;;;;;;2.03;1.00;;;23.20;59.50;;;;;;10399663;28;20224;-47
2023/11/06 01:31:46;;;;;;;1.90;1.13;;;23.20;59.50;;;;;;10395223;28;20201;-44
2023/11/06 01:36:50;;;;;;;2.00;1.00;;;23.20;59.60;;;;;;10395520;28;20225;-44
2023/11/06 01:41:55;;;;;;;1.48;0.98;;;23.20;59.60;;;;;;10411583;28;20642;-42
2023/11/06 01:46:59;;;;;;;1.65;1.10;;;23.20;59.60;;;;;;10392833;28;20221;-43
2023/11/06 01:52:03;;;;;;;2.53;1.48;;;23.20;59.60;;;;;;10407309;28;20274;-44
2023/11/06 01:57:08;;;;;;;1.15;0.77;;;23.20;59.50;;;;;;10402968;28;20291;-44
2023/11/06 02:02:14;;;;;;;1.35;0.90;;;23.20;59.60;;;;;;10405624;28;20275;-43
2023/11/06 02:07:18;;;;;;;1.85;1.20;;;23.20;59.50;;;;;;10393403;28;20243;-43
2023/11/06 02:12:23;;;;;;;2.05;1.10;;;23.20;59.50;;;;;;10402201;28;20197;-44
2023/11/06 02:17:26;;;;;;;2.10;1.27;;;23.20;58.90;;;;;;10401375;28;20240;-46
2023/11/06 02:22:32;;;;;;;1.88;1.15;;;23.20;59.50;;;;;;10398111;28;20209;-45
2023/11/06 02:27:39;;;;;;;1.45;0.85;;;23.20;59.50;;;;;;10409260;28;20220;-46
2023/11/06 02:32:43;;;;;;;1.70;1.00;;;23.20;59.50;;;;;;10399543;28;20583;-48
2023/11/06 02:37:47;;;;;;;2.22;0.80;;;23.20;59.60;;;;;;10403551;28;20239;-44
2023/11/06 02:42:52;;;;;;;1.13;0.88;;;23.20;59.50;;;;;;10408001;28;20200;-46
2023/11/06 02:47:55;;;;;;;1.13;0.80;;;23.20;59.50;;;;;;10409029;28;20289;-45
2023/11/06 02:52:59;;;;;;;1.98;1.02;;;23.20;59.50;;;;;;10409073;28;20205;-47
2023/11/06 02:58:04;;;;;;;2.58;1.20;;;23.20;59.50;;;;;;10404378;28;20299;-45
2023/11/06 03:03:08;;;;;;;2.03;0.93;;;23.20;59.50;;;;;;10402020;28;20197;-49
2023/11/06 03:08:12;;;;;;;2.42;1.17;;;23.20;59.40;;;;;;10387643;28;20603;-48
2023/11/06 03:13:17;;;;;;;1.83;0.90;;;23.20;59.50;;;;;;10409431;28;20228;-46
2023/11/06 03:18:21;;;;;;;2.03;0.90;;;23.20;59.40;;;;;;10406578;28;20286;-46
2023/11/06 03:23:25;;;;;;;2.90;1.20;;;23.20;59.40;;;;;;10392541;28;20262;-45
2023/11/06 03:28:30;;;;;;;2.45;1.25;;;23.20;59.40;;;;;;10403721;28;20262;-48
2023/11/06 03:33:33;;;;;;;2.10;1.02;;;23.20;59.30;;;;;;10402424;28;20246;-45
2023/11/06 03:38:38;;;;;;;1.88;1.02;;;23.20;59.30;;;;;;10396359;28;20291;-44
2023/11/06 03:43:43;;;;;;;3.47;1.00;;;23.20;59.30;;;;;;10388238;28;20250;-48
2023/11/06 03:48:46;;;;;;;3.95;0.90;;;23.20;59.30;;;;;;10401018;28;20224;-45
2023/11/06 03:53:50;;;;;;;1.40;0.80;;;23.20;59.30;;;;;;10396693;28;20221;-47
2023/11/06 03:58:55;;;;;;;1.27;0.68;;;23.20;59.30;;;;;;10407209;28;20243;-43
2023/11/06 04:04:00;;;;;;;2.72;1.00;;;23.20;59.20;;;;;;10400358;28;20196;-44
2023/11/06 04:09:07;;;;;;;4.47;0.95;;;23.30;59.30;;;;;;10402145;28;20212;-45
2023/11/06 04:14:12;;;;;;;2.83;1.00;;;23.20;59.20;;;;;;10394656;28;20205;-46
2023/11/06 04:19:15;;;;;;;2.88;0.98;;;23.20;59.20;;;;;;10401530;28;20690;-44
2023/11/06 04:24:19;;;;;;;2.97;0.90;;;23.30;59.30;;;;;;10385578;28;20205;-42
2023/11/06 04:29:24;;;;;;;2.13;0.82;;;23.30;59.30;;;;;;10402787;28;20213;-48
2023/11/06 04:34:28;;;;;;;0.93;0.73;;;23.30;59.30;;;;;;10385262;28;20200;-50
2023/11/06 04:39:32;;;;;;;1.85;0.90;;;23.30;59.30;;;;;;10392931;28;20240;-43
2023/11/06 04:44:37;;;;;;;1.77;0.70;;;23.20;59.20;;;;;;10384046;28;20204;-46
2023/11/06 04:49:40;;;;;;;1.88;0.80;;;23.20;59.20;;;;;;10387917;28;20703;-43
2023/11/06 04:54:44;;;;;;;2.30;0.80;;;23.20;59.20;;;;;;10403171;28;20216;-49
2023/11/06 04:59:49;;;;;;;2.90;0.95;;;23.20;59.20;;;;;;10403538;28;20232;-47
2023/11/06 05:04:54;;;;;;;1.38;0.70;;;23.20;59.10;;;;;;10398553;28;20200;-43
2023/11/06 05:09:57;;;;;;;2.95;1.13;;;23.20;59.10;;;;;;10382982;28;20556;-46
2023/11/06 05:15:03;;;;;;;3.95;0.82;;;23.20;59.10;;;;;;10416158;28;20680;-44
2023/11/06 05:20:09;;;;;;;3.70;1.20;;;23.20;59.10;;;;;;10389565;28;20355;-43
2023/11/06 05:25:13;;;;;;;3.28;1.05;;;23.20;59.10;;;;;;10415606;28;20200;-45
2023/11/06 05:30:18;;;;;;;2.70;0.80;;;23.20;59.20;;;;;;10409693;28;20196;-44
2023/11/06 05:35:22;;;;;;;3.20;1.08;;;23.20;59.10;;;;;;10392693;28;20387;-44
2023/11/06 05:40:25;;;;;;;5.43;1.02;;;23.20;59.10;;;;;;10410731;28;20262;-47
2023/11/06 05:45:31;;;;;;;17.05;1.58;;;23.20;59.20;;;;;;10406958;28;20301;-47
2023/11/06 05:50:35;;;;;;;17.30;2.42;;;23.30;59.30;;;;;;10406744;28;20196;-45
2023/11/06 05:55:39;;;;;;;10.70;1.90;;;23.30;59.30;;;;;;10411033;28;20224;-51
2023/11/06 06:00:45;;;;;;;7.47;2.42;;;23.30;59.30;;;;;;10392448;28;20251;-42
2023/11/06 06:05:49;;;;;;;4.55;3.00;;;23.40;59.30;;;;;;10396853;28;20251;-45
2023/11/06 06:10:53;;;;;;;8.88;2.58;;;23.30;57.70;;;;;;10407761;28;20734;-44
2023/11/06 06:15:58;;;;;;;6.78;1.60;;;23.00;57.50;;;;;;10414481;28;20224;-47
2023/11/06 06:21:02;;;;;;;4.28;1.70;;;23.00;58.00;;;;;;10410773;28;20789;-46
2023/11/06 06:26:06;;;;;;;2.97;1.58;;;23.00;58.10;;;;;;10412250;28;20970;-43
2023/11/06 06:31:11;;;;;;;3.20;1.67;;;23.00;58.10;;;;;;10415354;28;20614;-43
2023/11/06 06:36:15;;;;;;;2.67;1.40;;;23.00;58.10;;;;;;10412411;28;20274;-47
2023/11/06 06:41:18;;;;;;;2.85;1.58;;;23.00;58.20;;;;;;10408738;28;20220;-45
2023/11/06 06:46:23;;;;;;;2.40;1.20;;;23.00;58.20;;;;;;10411890;28;20224;-44
2023/11/06 06:51:27;;;;;;;4.40;1.85;;;23.10;58.30;;;;;;10407991;28;20204;-47
2023/11/06 06:56:31;;;;;;;4.13;1.60;;;23.10;58.30;;;;;;10404677;28;20282;-45
2023/11/06 07:01:36;;;;;;;2.00;1.42;;;23.10;58.30;;;;;;10414519;28;20664;-45
2023/11/06 07:06:40;;;;;;;4.13;1.40;;;23.10;58.30;;;;;;10412096;28;20274;-44
2023/11/06 07:11:44;;;;;;;3.53;1.60;;;23.10;58.90;;;;;;10411850;28;20254;-46
2023/11/06 07:16:49;;;;;;;3.83;1.30;;;23.10;58.30;;;;;;10412834;28;20255;-44
2023/11/06 07:21:54;;;;;;;4.68;1.17;;;23.20;58.40;;;;;;10409765;28;20294;-45
2023/11/06 07:26:58;;;;;;;4.38;1.50;;;23.10;58.90;;;;;;10407562;28;20283;-46
2023/11/06 07:32:05;;;;;;;5.18;1.45;;;23.10;58.30;;;;;;10386709;28;20205;-45
2023/11/06 07:37:10;;;;;;;3.70;1.40;;;23.20;58.40;;;;;;10409866;28;20220;-46
2023/11/06 07:42:13;;;;;;;4.03;1.33;;;23.20;58.40;;;;;;10411252;28;20216;-44
2023/11/06 07:47:18;;;;;;;3.90;1.42;;;23.20;58.30;;;;;;10405627;28;20243;-46
2023/11/06 07:52:22;;;;;;;4.68;1.63;;;23.10;58.30;;;;;;10407811;28;20208;-48
2023/11/06 07:57:25;;;;;;;3.92;1.30;;;23.20;58.40;;;;;;10407909;28;20212;-45
2023/11/06 08:02:35;;;;;;;3.40;1.55;;;23.20;58.40;;;;;;10401258;28;20294;-44
2023/11/06 08:07:39;;;;;;;5.15;1.83;;;23.20;58.30;;;;;;10407422;28;20224;-45
2023/11/06 08:12:43;;;;;;;3.95;1.50;;;23.20;58.40;;;;;;10397670;28;20197;-43
2023/11/06 08:17:49;;;;;;;4.72;1.95;;;23.20;58.40;;;;;;10396942;28;20774;-45
2023/11/06 08:22:53;;;;;;;3.70;1.60;;;23.20;58.30;;;;;;10403197;28;20236;-45
2023/11/06 08:27:56;;;;;;;4.13;1.98;;;23.20;58.30;;;;;;10409632;28;20289;-47
2023/11/06 08:33:01;;;;;;;6.55;2.17;;;23.20;58.30;;;;;;10410779;28;20216;-45
2023/11/06 08:38:06;;;;;;;4.15;2.03;;;23.20;58.30;;;;;;10400666;28;20220;-45
2023/11/06 08:43:11;;;;;;;4.88;2.35;;;23.20;58.40;;;;;;10409735;28;20238;-44
2023/11/06 08:48:20;;;;;;;3.60;2.10;;;23.20;58.40;;;;;;10385689;28;20224;-45
2023/11/06 08:53:25;;;;;;;4.65;2.72;;;23.20;58.40;;;;;;10363752;28;20203;-46
2023/11/06 08:58:29;;;;;;;5.95;3.45;;;23.20;58.30;;;;;;10407769;28;20220;-46
2023/11/06 09:03:37;;;;;;;7.82;4.22;;;23.20;58.30;;;;;;10407909;28;20248;-47
2023/11/06 09:08:40;;;;;;;6.18;4.03;;;23.20;58.40;;;;;;10407608;28;20224;-47
2023/11/06 09:13:44;;;;;;;10.75;4.75;;;23.20;58.30;;;;;;10408615;28;20262;-45
2023/11/06 09:18:49;;;;;;;9.02;5.00;;;23.20;58.30;;;;;;10408575;28;20232;-45
2023/11/06 09:23:53;;;;;;;8.00;5.72;;;23.20;58.30;;;;;;10408033;28;20393;-46
2023/11/06 09:28:57;;;;;;;9.55;6.35;;;23.20;58.30;;;;;;10408954;28;20224;-46
2023/11/06 09:34:02;;;;;;;9.55;6.95;;;23.20;58.30;;;;;;10409364;28;20254;-46
2023/11/06 09:39:09;;;;;;;11.90;7.55;;;23.20;58.30;;;;;;10408560;28;20286;-46
2023/11/06 09:44:13;;;;;;;12.13;8.25;;;23.20;58.30;;;;;;10408548;28;20282;-46
2023/11/06 09:49:26;;;;;;;10.20;7.15;;;23.20;58.30;;;;;;10408418;28;20232;-45
2023/11/06 09:54:30;;;;;;;12.05;8.88;;;23.20;58.90;;;;;;10401431;28;20619;-46
2023/11/06 09:59:34;;;;;;;13.85;10.05;;;23.20;58.30;;;;;;10417062;28;20246;-45
2023/11/06 10:04:39;;;;;;;15.20;9.82;;;23.20;58.30;;;;;;10416144;28;20228;-45
2023/11/06 10:09:43;;;;;;;13.05;9.38;;;23.20;58.20;;;;;;10415601;28;20363;-44
2023/11/06 10:14:46;;;;;;;11.60;8.38;;;23.20;58.30;;;;;;10415630;28;20393;-45
2023/11/06 10:20:05;;;;;;;12.98;8.77;;;23.20;58.20;;;;;;10415134;28;20228;-44
2023/11/06 10:25:11;;;;;;;10.88;7.53;;;23.20;58.30;;;;;;10415258;28;20777;-49
2023/11/06 10:30:15;;;;;;;11.10;7.40;;;23.20;58.30;;;;;;10423025;28;20212;-45
2023/11/06 10:35:20;;;;;;;12.43;7.90;;;23.20;58.20;;;;;;10392749;28;20220;-47
2023/11/06 10:40:32;;;;;;;16.17;8.23;;;23.20;58.20;;;;;;10346204;28;20201;-49
2023/11/06 10:45:36;;;;;;;10.30;7.38;;;23.20;58.80;;;;;;10384762;28;20228;-47
2023/11/06 10:50:43;;;;;;;12.68;8.10;;;23.20;58.20;;;;;;10384951;28;20697;-46
2023/11/06 10:55:48;;;;;;;10.63;6.97;;;23.20;58.20;;;;;;10391736;28;20777;-46
2023/11/06 11:00:54;;;;;;;11.55;7.35;;;23.20;58.20;;;;;;10413324;28;20208;-44
2023/11/06 11:06:04;;;;;;;14.00;8.05;;;23.20;58.20;;;;;;10372008;28;21097;-57
2023/11/06 11:11:09;;;;;;;11.52;6.90;;;23.20;58.30;;;;;;10410528;28;20230;-43
2023/11/06 11:16:37;;;;;;;11.82;7.07;;;23.20;58.90;;;;;;10412909;28;20285;-45
2023/11/06 11:22:08;;;;;;;10.82;6.50;;;23.20;58.30;;;;;;10398420;28;20286;-44
2023/11/06 11:27:13;;;;;;;12.77;7.30;;;23.20;58.30;;;;;;10412750;28;20220;-44
2023/11/06 11:32:17;;;;;;;10.60;6.50;;;23.20;58.30;;;;;;10412021;28;20266;-44
2023/11/06 11:37:37;;;;;;;12.00;6.75;;;23.20;58.30;;;;;;10412258;28;20223;-48
2023/11/06 11:42:41;;;;;;;10.85;5.93;;;23.20;58.30;;;;;;10405146;28;20341;-45
2023/11/06 11:47:54;;;;;;;9.10;6.28;;;23.20;58.30;;;;;;10412548;28;20270;-45
2023/11/06 11:53:00;;;;;;;9.95;5.60;;;23.20;58.30;;;;;;10371773;28;20215;-46
2023/11/06 11:58:08;;;;;;;10.00;5.95;;;23.30;58.30;;;;;;10411363;28;20223;-45
2023/11/06 12:03:16;;;;;;;8.40;4.93;;;23.20;58.30;;;;;;10401269;28;20224;-46
2023/11/06 12:08:23;;;;;;;7.30;4.72;;;23.20;58.30;;;;;;10404959;28;20232;-45
2023/11/06 12:13:33;;;;;;;8.70;4.15;;;23.30;58.30;;;;;;10403641;28;20671;-49
2023/11/06 12:18:42;;;;;;;8.45;4.70;;;23.30;58.20;;;;;;10406237;28;20229;-45
2023/11/06 12:23:48;;;;;;;15.00;4.70;;;23.40;58.80;;;;;;10404435;28;20227;-45
2023/11/06 12:28:52;;;;;;;12.05;4.63;;;23.40;58.30;;;;;;10409913;28;20224;-46
2023/11/06 12:33:56;;;;;;;15.25;5.32;;;23.40;58.30;;;;;;10410853;28;20257;-47
2023/11/06 12:39:01;;;;;;;10.70;4.60;;;23.30;58.20;;;;;;10407414;28;20225;-48
2023/11/06 12:44:08;;;;;;;7.22;4.10;;;23.30;58.30;;;;;;10396777;28;20699;-45
2023/11/06 12:49:13;;;;;;;8.90;4.35;;;23.30;58.30;;;;;;10402022;28;20306;-46
2023/11/06 12:54:22;;;;;;;8.77;4.07;;;23.30;58.30;;;;;;10406208;28;20230;-49
2023/11/06 12:59:29;;;;;;;8.48;4.20;;;23.30;58.30;;;;;;10408752;28;20631;-49
2023/11/06 13:04:36;;;;;;;7.47;3.60;;;23.30;58.30;;;;;;10403239;28;20247;-49
2023/11/06 13:09:41;;;;;;;5.07;3.53;;;23.30;58.30;;;;;;10406950;28;20220;-49
2023/11/06 13:14:45;;;;;;;7.43;3.60;;;23.30;58.30;;;;;;10383950;28;20196;-49
2023/11/06 13:19:49;;;;;;;6.95;3.33;;;23.30;58.30;;;;;;10407969;28;20224;-47
2023/11/06 13:24:56;;;;;;;8.25;3.50;;;23.30;58.20;;;;;;10404963;28;20287;-48
2023/11/06 13:29:59;;;;;;;4.85;3.20;;;23.30;58.20;;;;;;10402530;28;20238;-48
2023/11/06 13:35:03;;;;;;;4.97;3.10;;;23.30;58.20;;;;;;10380683;28;20238;-47
2023/11/06 13:40:18;;;;;;;5.90;3.10;;;23.30;58.20;;;;;;10415457;28;20223;-47
2023/11/06 13:45:24;;;;;;;6.88;2.95;;;23.30;58.20;;;;;;10390117;28;20223;-52
2023/11/06 13:50:33;;;;;;;4.57;2.83;;;23.30;58.20;;;;;;10414744;28;20205;-50
2023/11/06 13:55:40;;;;;;;6.47;3.22;;;23.20;58.10;;;;;;10379898;28;20243;-47
2023/11/06 14:00:47;;;;;;;5.90;2.90;;;23.30;58.20;;;;;;10378133;28;20673;-50
2023/11/06 14:05:52;;;;;;;3.78;2.47;;;23.20;58.10;;;;;;10413465;28;20239;-48
2023/11/06 14:10:57;;;;;;;4.93;2.78;;;23.20;58.10;;;;;;10415977;28;20778;-46
2023/11/06 14:16:00;;;;;;;3.58;2.50;;;23.20;58.10;;;;;;10413686;28;20235;-48
2023/11/06 14:21:05;;;;;;;3.83;2.45;;;23.20;58.10;;;;;;10411827;28;20311;-52
2023/11/06 14:26:13;;;;;;;3.80;2.50;;;23.30;58.20;;;;;;10409768;28;20232;-50
2023/11/06 14:31:18;;;;;;;6.55;2.17;;;23.30;58.20;;;;;;10414060;28;20238;-48
2023/11/06 14:36:22;;;;;;;4.10;2.33;;;23.30;58.10;;;;;;10412381;28;20239;-49
2023/11/06 14:41:27;;;;;;;3.53;2.17;;;23.30;58.10;;;;;;10407268;28;20197;-48
2023/11/06 14:46:30;;;;;;;3.65;2.22;;;23.20;58.10;;;;;;10379138;28;20297;-49
2023/11/06 14:51:35;;;;;;;3.95;1.80;;;23.30;58.10;;;;;;10413951;28;20269;-48
2023/11/06 14:56:45;;;;;;;3.22;1.95;;;23.30;58.10;;;;;;10412101;28;20286;-51
2023/11/06 15:01:49;;;;;;;3.92;2.00;;;23.20;58.10;;;;;;10410133;28;20227;-49
2023/11/06 15:06:53;;;;;;;3.70;1.95;;;23.20;58.10;;;;;;10411322;28;20255;-48
2023/11/06 15:11:58;;;;;;;2.25;1.70;;;23.20;58.10;;;;;;10413265;28;20204;-48
2023/11/06 15:17:01;;;;;;;2.67;1.70;;;23.20;58.10;;;;;;10410331;28;20243;-47
2023/11/06 15:22:05;;;;;;;3.65;2.00;;;23.20;58.10;;;;;;10412934;28;20231;-48
2023/11/06 15:27:10;;;;;;;4.15;2.17;;;23.20;58.10;;;;;;10410613;28;20385;-47
2023/11/06 15:32:14;;;;;;;3.80;1.75;;;23.20;58.20;;;;;;10405727;28;20275;-52
2023/11/06 15:37:17;;;;;;;2.35;1.60;;;23.20;58.10;;;;;;10390843;28;20251;-50
2023/11/06 15:42:22;;;;;;;2.28;1.65;;;23.20;58.10;;;;;;10361893;28;20220;-49
2023/11/06 15:47:26;;;;;;;1.92;1.50;;;23.20;58.20;;;;;;10398385;28;20252;-41
2023/11/06 15:52:30;;;;;;;5.10;2.03;;;23.20;58.20;;;;;;10397727;28;20684;-46
2023/11/06 15:57:35;;;;;;;6.38;1.95;;;23.30;58.40;;;;;;10405853;28;20244;-45
2023/11/06 16:02:39;;;;;;;6.05;1.75;;;23.40;58.30;;;;;;10386610;28;20668;-48
2023/11/06 16:07:46;;;;;;;6.20;2.22;;;23.40;58.20;;;;;;10390265;28;20940;-47
2023/11/06 16:12:52;;;;;;;3.97;1.77;;;23.50;58.20;;;;;;10396536;28;20243;-47
2023/11/06 16:17:56;;;;;;;4.88;1.88;;;23.50;58.20;;;;;;10404358;28;20627;-45
2023/11/06 16:23:04;;;;;;;4.75;1.85;;;23.60;58.20;;;;;;10377588;28;20200;-42
2023/11/06 16:28:11;;;;;;;2.50;1.50;;;23.60;58.10;;;;;;10391800;28;20240;-45
2023/11/06 16:33:16;;;;;;;14.07;2.60;;;23.60;58.10;;;;;;10396420;28;20208;-45
2023/11/06 16:38:19;;;;;;;11.32;2.42;;;23.60;58.10;;;;;;10391931;28;20262;-43
2023/11/06 16:43:24;;;;;;;18.85;2.72;;;23.60;58.10;;;;;;10395981;28;20573;-46
2023/11/06 16:48:29;;;;;;;16.58;2.95;;;23.60;58.20;;;;;;10391878;28;20798;-43
2023/11/06 16:53:32;;;;;;;14.48;2.58;;;23.60;58.30;;;;;;10398561;28;20223;-46
2023/11/06 16:58:37;;;;;;;11.32;1.85;;;23.60;58.30;;;;;;10392659;28;20239;-43
2023/11/06 17:03:42;;;;;;;6.72;1.83;;;23.60;58.30;;;;;;10372853;28;20243;-54
2023/11/06 17:08:46;;;;;;;3.97;1.50;;;23.60;58.30;;;;;;10393422;28;20228;-48
2023/11/06 17:13:52;;;;;;;8.90;1.90;;;23.60;59.00;;;;;;10399741;28;20222;-44
2023/11/06 17:18:57;;;;;;;4.55;1.30;;;23.60;58.30;;;;;;10400251;28;20753;-45
2023/11/06 17:24:03;;;;;;;5.10;1.63;;;23.70;58.40;;;;;;10368435;28;20732;-43
2023/11/06 17:29:09;;;;;;;4.03;1.42;;;23.70;58.50;;;;;;10397314;28;20765;-45
2023/11/06 17:34:13;;;;;;;3.67;1.42;;;23.70;58.40;;;;;;10402946;28;20204;-47
2023/11/06 17:39:20;;;;;;;5.03;1.25;;;23.70;58.40;;;;;;10392089;28;20286;-46
2023/11/06 17:44:25;;;;;;;3.28;1.67;;;23.70;58.40;;;;;;10387164;28;20301;-55
2023/11/06 17:49:29;;;;;;;4.80;1.35;;;23.70;58.40;;;;;;10396753;28;20952;-56
2023/11/06 17:54:33;;;;;;;3.95;1.63;;;23.60;58.30;;;;;;10401597;28;21122;-48
2023/11/06 17:59:39;;;;;;;3.50;1.20;;;23.60;58.40;;;;;;10387742;28;20314;-50
2023/11/06 18:04:43;;;;;;;5.55;1.30;;;23.60;58.40;;;;;;10392761;28;20248;-48
2023/11/06 18:09:47;;;;;;;5.38;1.20;;;23.60;58.40;;;;;;10404146;28;20228;-45
2023/11/06 18:14:52;;;;;;;3.05;1.23;;;23.60;58.50;;;;;;10404068;28;20204;-47
2023/11/06 18:20:01;;;;;;;4.25;1.48;;;23.60;58.40;;;;;;10411720;28;20204;-43
2023/11/06 18:25:06;;;;;;;3.97;1.45;;;23.60;58.40;;;;;;10411456;28;20290;-46
2023/11/06 18:30:12;;;;;;;3.00;1.50;;;23.60;58.40;;;;;;10405194;28;20293;-48
2023/11/06 18:35:16;;;;;;;2.75;1.13;;;23.60;58.30;;;;;;10378857;28;20240;-47
2023/11/06 18:40:21;;;;;;;6.85;1.25;;;23.60;58.30;;;;;;10402309;28;20244;-56
2023/11/06 18:45:26;;;;;;;5.15;1.60;;;23.70;58.50;;;;;;10398508;28;20249;-51
2023/11/06 18:50:32;;;;;;;2.45;1.45;;;23.70;58.40;;;;;;10407330;28;20286;-46
2023/11/06 18:55:36;;;;;;;2.60;1.40;;;23.70;58.40;;;;;;10402691;28;20220;-44
2023/11/06 19:00:42;;;;;;;5.35;0.88;;;23.70;58.40;;;;;;10404856;28;20208;-52
2023/11/06 19:05:47;;;;;;;2.30;0.95;;;23.80;58.50;;;;;;10365728;28;20252;-47
2023/11/06 19:10:52;;;;;;;3.25;1.20;;;23.80;58.50;;;;;;10406096;28;20216;-51
2023/11/06 19:15:57;;;;;;;5.72;1.52;;;23.80;58.40;;;;;;10398915;28;20248;-49
2023/11/06 19:21:01;;;;;;;11.15;2.22;;;23.90;58.40;;;;;;10399829;28;20746;-50
2023/11/06 19:26:05;;;;;;;16.80;2.78;;;23.80;58.40;;;;;;10400531;28;20298;-47
2023/11/06 19:31:10;;;;;;;7.00;2.45;;;23.80;58.40;;;;;;10395473;28;20225;-45
2023/11/06 19:36:14;;;;;;;18.40;3.75;;;23.70;58.30;;;;;;10397094;28;20252;-54
2023/11/06 19:41:17;;;;;;;12.57;4.43;;;23.70;59.10;;;;;;10396842;28;20498;-42
2023/11/06 19:46:22;;;;;;;11.00;3.70;;;23.60;59.10;;;;;;10393700;28;20817;-50
2023/11/06 19:51:26;;;;;;;10.63;3.70;;;23.80;58.50;;;;;;10390045;28;20297;-49
2023/11/06 19:56:31;;;;;;;18.70;4.05;;;23.80;58.40;;;;;;10403316;28;20216;-51
2023/11/06 20:01:36;;;;;;;13.63;4.45;;;23.80;58.40;;;;;;10447335;28;20257;-52
2023/11/06 20:06:40;;;;;;;11.20;4.93;;;23.80;58.40;;;;;;10440574;28;20255;-56
2023/11/06 20:11:45;;;;;;;20.48;5.13;;;23.70;58.40;;;;;;10450198;28;20207;-58
2023/11/06 20:16:50;;;;;;;8.70;4.88;;;23.70;58.40;;;;;;10447844;28;20679;-57
2023/11/06 20:21:57;;;;;;;11.02;6.03;;;23.60;58.40;;;;;;10450073;28;20203;-55
2023/11/06 20:27:01;;;;;;;11.95;7.20;;;23.60;58.40;;;;;;10447332;28;20320;-54
2023/11/06 20:32:07;;;;;;;12.07;6.78;;;23.60;58.40;;;;;;10444865;28;20272;-54
2023/11/06 20:37:10;;;;;;;10.88;6.40;;;23.50;58.40;;;;;;10441407;28;20269;-54
2023/11/06 20:42:14;;;;;;;15.45;6.38;;;23.50;58.40;;;;;;10434674;28;20203;-56
2023/11/06 20:47:21;;;;;;;9.98;5.90;;;23.50;59.10;;;;;;10441080;28;20259;-56
2023/11/06 20:52:25;;;;;;;9.48;6.60;;;23.50;58.40;;;;;;10437062;28;20227;-56
2023/11/06 20:57:29;;;;;;;28.30;7.20;;;23.50;59.10;;;;;;10433698;28;20345;-55
2023/11/06 21:02:34;;;;;;;23.17;6.38;;;23.50;59.10;;;;;;10433747;28;20683;-57
2023/11/06 21:07:39;;;;;;;15.88;5.70;;;23.50;58.40;;;;;;10431746;28;20255;-54
2023/11/06 21:12:43;;;;;;;11.05;5.72;;;23.50;59.10;;;;;;10412507;28;20223;-53
2023/11/06 21:17:47;;;;;;;15.35;5.40;;;23.50;58.40;;;;;;10447839;28;20710;-55
2023/11/06 21:22:51;;;;;;;19.52;5.72;;;23.50;58.40;;;;;;10446473;28;20276;-56
2023/11/06 21:27:58;;;;;;;15.20;5.43;;;23.40;58.30;;;;;;10420941;28;20691;-60
2023/11/06 21:33:03;;;;;;;13.40;5.45;;;23.40;58.40;;;;;;10435593;28;20325;-57
2023/11/06 21:38:09;;;;;;;7.40;5.25;;;23.40;58.30;;;;;;10439048;28;20235;-56
2023/11/06 21:43:12;;;;;;;12.52;5.45;;;23.40;58.40;;;;;;10437001;28;20740;-56
2023/11/06 21:48:20;;;;;;;13.18;5.22;;;23.40;58.50;;;;;;10447267;28;20654;-52
2023/11/06 21:53:23;;;;;;;9.02;4.88;;;23.50;58.60;;;;;;10447823;28;20558;-60
2023/11/06 21:58:27;;;;;;;15.38;4.30;;;23.60;58.60;;;;;;10450514;28;20215;-52
2023/11/06 22:03:34;;;;;;;15.27;4.35;;;23.60;58.60;;;;;;10400426;28;20294;-54
2023/11/06 22:08:38;;;;;;;12.55;4.53;;;23.50;58.50;;;;;;10415353;28;20309;-51
2023/11/06 22:13:44;;;;;;;10.10;3.95;;;23.50;58.50;;;;;;10413935;28;20219;-53
2023/11/06 22:18:49;;;;;;;9.13;3.75;;;23.50;58.50;;;;;;10448636;28;20219;-51
2023/11/06 22:23:53;;;;;;;7.10;4.50;;;23.50;58.50;;;;;;10453030;28;20258;-51
2023/11/06 22:28:57;;;;;;;11.52;4.28;;;23.40;58.50;;;;;;10444490;28;20392;-54
2023/11/06 22:34:02;;;;;;;5.75;3.75;;;23.40;58.50;;;;;;10454840;28;20199;-54
2023/11/06 22:39:06;;;;;;;10.98;3.67;;;23.40;58.50;;;;;;10455797;28;20337;-51
2023/11/06 22:44:09;;;;;;;8.40;3.83;;;23.40;58.50;;;;;;10447974;28;20373;-52
2023/11/06 22:49:14;;;;;;;6.30;3.90;;;23.40;58.50;;;;;;10442060;28;20278;-52
2023/11/06 22:54:18;;;;;;;5.53;3.17;;;23.40;58.50;;;;;;10442132;28;20686;-54
2023/11/06 22:59:22;;;;;;;6.30;3.45;;;23.40;58.50;;;;;;10447639;28;20243;-51
2023/11/06 23:04:27;;;;;;;6.28;3.58;;;23.40;58.50;;;;;;10433678;28;20249;-53
2023/11/06 23:09:30;;;;;;;5.75;3.13;;;23.40;58.50;;;;;;10446114;28;20227;-52
2023/11/06 23:14:34;;;;;;;6.65;3.55;;;23.40;58.50;;;;;;10439181;28;20247;-51
2023/11/06 23:19:39;;;;;;;6.95;3.50;;;23.40;58.50;;;;;;10447308;28;20220;-52
2023/11/06 23:24:42;;;;;;;4.47;3.00;;;23.40;58.50;;;;;;10458074;28;20203;-51
2023/11/06 23:29:49;;;;;;;5.07;3.42;;;23.30;58.40;;;;;;10453560;28;20239;-51
2023/11/06 23:34:54;;;;;;;5.75;3.22;;;23.40;58.50;;;;;;10437688;28;20234;-55
2023/11/06 23:39:58;;;;;;;5.60;3.28;;;23.30;58.40;;;;;;10448744;28;20199;-53
2023/11/06 23:45:02;;;;;;;6.63;3.05;;;23.30;59.00;;;;;;10426903;28;20990;-55
2023/11/06 23:50:07;;;;;;;4.65;3.10;;;23.40;58.50;;;;;;10430203;28;20252;-51
2023/11/06 23:55:11;;;;;;;4.43;3.13;;;23.30;58.40;;;;;;10442365;28;20659;-53
